sensor_id;sensor_type;location;lat;lon;timestamp;P1;durP1;ratioP1;P2;durP2;ratioP2
36233;SDS011;43467;50.890;5.982;2022-09-01T00:00:48;4.18;;;2.28;;
36233;SDS011;43467;50.890;5.982;2022-09-01T00:03:15;5.50;;;2.60;;
36233;SDS011;43467;50.890;5.982;2022-09-01T00:05:42;5.15;;;2.30;;
36233;SDS011;43467;50.890;5.982;2022-09-01T00:08:10;6.63;;;2.47;;
36233;SDS011;43467;50.890;5.982;2022-09-01T00:10:36;4.30;;;1.90;;
36233;SDS011;43467;50.890;5.982;2022-09-01T00:13:02;9.40;;;2.40;;
36233;SDS011;43467;50.890;5.982;2022-09-01T00:15:30;5.63;;;2.40;;
36233;SDS011;43467;50.890;5.982;2022-09-01T00:17:56;6.57;;;2.80;;
36233;SDS011;43467;50.890;5.982;2022-09-01T00:20:21;8.27;;;2.90;;
36233;SDS011;43467;50.890;5.982;2022-09-01T00:22:47;7.43;;;2.80;;
36233;SDS011;43467;50.890;5.982;2022-09-01T00:25:13;9.52;;;3.08;;
36233;SDS011;43467;50.890;5.982;2022-09-01T00:27:38;2.90;;;2.40;;
36233;SDS011;43467;50.890;5.982;2022-09-01T00:30:04;8.43;;;2.63;;
36233;SDS011;43467;50.890;5.982;2022-09-01T00:32:31;4.75;;;2.40;;
36233;SDS011;43467;50.890;5.982;2022-09-01T00:34:57;4.22;;;2.60;;
36233;SDS011;43467;50.890;5.982;2022-09-01T00:37:22;5.03;;;2.40;;
36233;SDS011;43467;50.890;5.982;2022-09-01T00:39:47;5.00;;;2.85;;
36233;SDS011;43467;50.890;5.982;2022-09-01T00:42:13;4.88;;;2.60;;
36233;SDS011;43467;50.890;5.982;2022-09-01T00:44:38;4.50;;;2.45;;
36233;SDS011;43467;50.890;5.982;2022-09-01T00:47:03;4.93;;;2.95;;
36233;SDS011;43467;50.890;5.982;2022-09-01T00:49:31;4.38;;;2.85;;
36233;SDS011;43467;50.890;5.982;2022-09-01T00:52:07;6.32;;;2.78;;
36233;SDS011;43467;50.890;5.982;2022-09-01T00:57:08;5.70;;;3.00;;
36233;SDS011;43467;50.890;5.982;2022-09-01T00:59:34;5.80;;;2.95;;
36233;SDS011;43467;50.890;5.982;2022-09-01T01:02:07;4.57;;;2.70;;
36233;SDS011;43467;50.890;5.982;2022-09-01T01:04:33;5.78;;;3.20;;
36233;SDS011;43467;50.890;5.982;2022-09-01T01:06:58;4.63;;;2.97;;
36233;SDS011;43467;50.890;5.982;2022-09-01T01:09:29;5.28;;;3.13;;
36233;SDS011;43467;50.890;5.982;2022-09-01T01:11:58;7.40;;;4.00;;
36233;SDS011;43467;50.890;5.982;2022-09-01T01:14:26;6.97;;;4.00;;
36233;SDS011;43467;50.890;5.982;2022-09-01T01:16:56;5.43;;;3.53;;
36233;SDS011;43467;50.890;5.982;2022-09-01T01:22:07;5.80;;;3.75;;
36233;SDS011;43467;50.890;5.982;2022-09-01T01:24:56;7.93;;;4.13;;
36233;SDS011;43467;50.890;5.982;2022-09-01T01:27:22;7.25;;;3.88;;
36233;SDS011;43467;50.890;5.982;2022-09-01T01:29:48;8.15;;;3.90;;
36233;SDS011;43467;50.890;5.982;2022-09-01T01:32:17;9.02;;;3.95;;
36233;SDS011;43467;50.890;5.982;2022-09-01T01:34:42;7.32;;;3.80;;
36233;SDS011;43467;50.890;5.982;2022-09-01T01:37:11;9.25;;;3.90;;
36233;SDS011;43467;50.890;5.982;2022-09-01T01:39:39;8.55;;;4.55;;
36233;SDS011;43467;50.890;5.982;2022-09-01T01:42:06;6.18;;;4.00;;
36233;SDS011;43467;50.890;5.982;2022-09-01T01:44:33;12.85;;;4.28;;
36233;SDS011;43467;50.890;5.982;2022-09-01T01:47:01;6.97;;;4.15;;
36233;SDS011;43467;50.890;5.982;2022-09-01T01:49:34;6.45;;;4.20;;
36233;SDS011;43467;50.890;5.982;2022-09-01T01:52:00;5.65;;;4.20;;
36233;SDS011;43467;50.890;5.982;2022-09-01T01:54:27;9.18;;;4.78;;
36233;SDS011;43467;50.890;5.982;2022-09-01T01:56:55;5.78;;;3.53;;
36233;SDS011;43467;50.890;5.982;2022-09-01T01:59:21;9.60;;;4.68;;
36233;SDS011;43467;50.890;5.982;2022-09-01T02:01:48;6.93;;;4.18;;
36233;SDS011;43467;50.890;5.982;2022-09-01T02:04:15;5.53;;;3.58;;
36233;SDS011;43467;50.890;5.982;2022-09-01T02:06:41;3.92;;;3.50;;
36233;SDS011;43467;50.890;5.982;2022-09-01T02:09:10;7.57;;;3.95;;
36233;SDS011;43467;50.890;5.982;2022-09-01T02:11:37;8.00;;;4.47;;
36233;SDS011;43467;50.890;5.982;2022-09-01T02:14:03;10.50;;;5.20;;
36233;SDS011;43467;50.890;5.982;2022-09-01T02:16:30;6.30;;;4.20;;
36233;SDS011;43467;50.890;5.982;2022-09-01T02:19:00;10.98;;;4.55;;
36233;SDS011;43467;50.890;5.982;2022-09-01T02:21:27;6.38;;;4.13;;
36233;SDS011;43467;50.890;5.982;2022-09-01T02:23:54;7.30;;;4.07;;
36233;SDS011;43467;50.890;5.982;2022-09-01T02:26:43;9.15;;;4.40;;
36233;SDS011;43467;50.890;5.982;2022-09-01T02:29:13;11.27;;;4.60;;
36233;SDS011;43467;50.890;5.982;2022-09-01T02:31:46;9.18;;;4.40;;
36233;SDS011;43467;50.890;5.982;2022-09-01T02:34:15;8.05;;;4.22;;
36233;SDS011;43467;50.890;5.982;2022-09-01T02:36:48;6.85;;;4.75;;
36233;SDS011;43467;50.890;5.982;2022-09-01T02:39:16;7.60;;;4.70;;
36233;SDS011;43467;50.890;5.982;2022-09-01T02:41:47;14.25;;;5.07;;
36233;SDS011;43467;50.890;5.982;2022-09-01T02:44:13;10.48;;;4.30;;
36233;SDS011;43467;50.890;5.982;2022-09-01T02:46:42;7.85;;;4.50;;
36233;SDS011;43467;50.890;5.982;2022-09-01T02:49:14;7.95;;;4.35;;
36233;SDS011;43467;50.890;5.982;2022-09-01T02:54:11;5.95;;;4.47;;
36233;SDS011;43467;50.890;5.982;2022-09-01T02:56:43;6.78;;;4.20;;
36233;SDS011;43467;50.890;5.982;2022-09-01T02:59:12;9.07;;;4.65;;
36233;SDS011;43467;50.890;5.982;2022-09-01T03:01:41;9.80;;;5.10;;
36233;SDS011;43467;50.890;5.982;2022-09-01T03:04:09;11.52;;;5.18;;
36233;SDS011;43467;50.890;5.982;2022-09-01T03:06:36;10.15;;;5.20;;
36233;SDS011;43467;50.890;5.982;2022-09-01T03:09:04;10.35;;;5.00;;
36233;SDS011;43467;50.890;5.982;2022-09-01T03:11:33;10.27;;;4.95;;
36233;SDS011;43467;50.890;5.982;2022-09-01T03:14:01;9.25;;;4.90;;
36233;SDS011;43467;50.890;5.982;2022-09-01T03:16:27;9.20;;;4.22;;
36233;SDS011;43467;50.890;5.982;2022-09-01T03:18:56;9.30;;;5.20;;
36233;SDS011;43467;50.890;5.982;2022-09-01T03:21:22;10.35;;;4.93;;
36233;SDS011;43467;50.890;5.982;2022-09-01T03:23:48;6.72;;;4.95;;
36233;SDS011;43467;50.890;5.982;2022-09-01T03:26:15;8.77;;;5.78;;
36233;SDS011;43467;50.890;5.982;2022-09-01T03:28:43;10.27;;;5.47;;
36233;SDS011;43467;50.890;5.982;2022-09-01T03:31:09;7.75;;;5.13;;
36233;SDS011;43467;50.890;5.982;2022-09-01T03:33:35;8.65;;;4.88;;
36233;SDS011;43467;50.890;5.982;2022-09-01T03:36:01;9.15;;;5.57;;
36233;SDS011;43467;50.890;5.982;2022-09-01T03:38:27;8.52;;;5.60;;
36233;SDS011;43467;50.890;5.982;2022-09-01T03:40:54;8.73;;;5.45;;
36233;SDS011;43467;50.890;5.982;2022-09-01T03:43:26;9.77;;;5.00;;
36233;SDS011;43467;50.890;5.982;2022-09-01T03:45:53;12.85;;;5.35;;
36233;SDS011;43467;50.890;5.982;2022-09-01T03:48:20;9.45;;;4.90;;
36233;SDS011;43467;50.890;5.982;2022-09-01T03:50:46;12.57;;;5.85;;
36233;SDS011;43467;50.890;5.982;2022-09-01T03:53:15;10.32;;;5.40;;
36233;SDS011;43467;50.890;5.982;2022-09-01T03:55:44;10.07;;;5.90;;
36233;SDS011;43467;50.890;5.982;2022-09-01T03:58:10;9.30;;;5.57;;
36233;SDS011;43467;50.890;5.982;2022-09-01T04:00:40;7.95;;;5.65;;
36233;SDS011;43467;50.890;5.982;2022-09-01T04:03:08;12.07;;;5.75;;
36233;SDS011;43467;50.890;5.982;2022-09-01T04:05:36;7.20;;;5.25;;
36233;SDS011;43467;50.890;5.982;2022-09-01T04:08:03;8.68;;;4.93;;
36233;SDS011;43467;50.890;5.982;2022-09-01T04:10:31;5.60;;;5.00;;
36233;SDS011;43467;50.890;5.982;2022-09-01T04:13:02;10.50;;;6.70;;
36233;SDS011;43467;50.890;5.982;2022-09-01T04:15:29;6.18;;;5.18;;
36233;SDS011;43467;50.890;5.982;2022-09-01T04:17:56;6.35;;;4.97;;
36233;SDS011;43467;50.890;5.982;2022-09-01T04:20:40;10.88;;;5.47;;
36233;SDS011;43467;50.890;5.982;2022-09-01T04:23:17;9.77;;;5.38;;
36233;SDS011;43467;50.890;5.982;2022-09-01T04:26:04;9.98;;;5.15;;
36233;SDS011;43467;50.890;5.982;2022-09-01T04:28:37;11.48;;;6.10;;
36233;SDS011;43467;50.890;5.982;2022-09-01T04:31:10;9.73;;;5.05;;
36233;SDS011;43467;50.890;5.982;2022-09-01T04:33:41;10.00;;;4.55;;
36233;SDS011;43467;50.890;5.982;2022-09-01T04:36:14;8.63;;;5.65;;
36233;SDS011;43467;50.890;5.982;2022-09-01T04:38:49;6.75;;;5.25;;
36233;SDS011;43467;50.890;5.982;2022-09-01T04:41:20;7.93;;;5.78;;
36233;SDS011;43467;50.890;5.982;2022-09-01T04:43:47;11.55;;;5.65;;
36233;SDS011;43467;50.890;5.982;2022-09-01T04:46:16;9.30;;;5.82;;
36233;SDS011;43467;50.890;5.982;2022-09-01T04:48:42;10.65;;;6.20;;
36233;SDS011;43467;50.890;5.982;2022-09-01T04:51:09;8.57;;;5.32;;
36233;SDS011;43467;50.890;5.982;2022-09-01T04:53:36;9.75;;;5.43;;
36233;SDS011;43467;50.890;5.982;2022-09-01T04:56:07;8.80;;;5.60;;
36233;SDS011;43467;50.890;5.982;2022-09-01T04:58:36;7.57;;;5.10;;
36233;SDS011;43467;50.890;5.982;2022-09-01T05:01:02;9.90;;;5.60;;
36233;SDS011;43467;50.890;5.982;2022-09-01T05:03:38;6.30;;;5.32;;
36233;SDS011;43467;50.890;5.982;2022-09-01T05:06:03;11.15;;;5.53;;
36233;SDS011;43467;50.890;5.982;2022-09-01T05:08:29;9.75;;;5.68;;
36233;SDS011;43467;50.890;5.982;2022-09-01T05:10:59;7.18;;;5.20;;
36233;SDS011;43467;50.890;5.982;2022-09-01T05:13:30;7.63;;;5.47;;
36233;SDS011;43467;50.890;5.982;2022-09-01T05:16:15;9.02;;;5.82;;
36233;SDS011;43467;50.890;5.982;2022-09-01T05:18:46;5.63;;;5.05;;
36233;SDS011;43467;50.890;5.982;2022-09-01T05:21:17;9.38;;;5.65;;
36233;SDS011;43467;50.890;5.982;2022-09-01T05:23:48;11.38;;;5.40;;
36233;SDS011;43467;50.890;5.982;2022-09-01T05:26:17;12.02;;;5.68;;
36233;SDS011;43467;50.890;5.982;2022-09-01T05:28:45;6.97;;;5.07;;
36233;SDS011;43467;50.890;5.982;2022-09-01T05:31:11;8.30;;;4.57;;
36233;SDS011;43467;50.890;5.982;2022-09-01T05:33:37;8.13;;;4.70;;
36233;SDS011;43467;50.890;5.982;2022-09-01T05:36:10;6.63;;;5.20;;
36233;SDS011;43467;50.890;5.982;2022-09-01T05:38:36;8.07;;;4.38;;
36233;SDS011;43467;50.890;5.982;2022-09-01T05:41:07;8.55;;;4.72;;
36233;SDS011;43467;50.890;5.982;2022-09-01T05:43:35;6.45;;;4.38;;
36233;SDS011;43467;50.890;5.982;2022-09-01T05:46:05;7.75;;;4.90;;
36233;SDS011;43467;50.890;5.982;2022-09-01T05:48:32;7.32;;;5.13;;
36233;SDS011;43467;50.890;5.982;2022-09-01T05:50:58;6.97;;;4.50;;
36233;SDS011;43467;50.890;5.982;2022-09-01T05:53:27;6.10;;;4.05;;
36233;SDS011;43467;50.890;5.982;2022-09-01T05:55:55;6.72;;;4.55;;
36233;SDS011;43467;50.890;5.982;2022-09-01T05:58:22;6.07;;;4.78;;
36233;SDS011;43467;50.890;5.982;2022-09-01T06:00:52;7.63;;;4.55;;
36233;SDS011;43467;50.890;5.982;2022-09-01T06:03:18;9.02;;;4.55;;
36233;SDS011;43467;50.890;5.982;2022-09-01T06:05:46;8.20;;;4.68;;
36233;SDS011;43467;50.890;5.982;2022-09-01T06:08:16;13.93;;;5.00;;
36233;SDS011;43467;50.890;5.982;2022-09-01T06:10:43;9.13;;;4.97;;
36233;SDS011;43467;50.890;5.982;2022-09-01T06:13:09;9.13;;;4.63;;
36233;SDS011;43467;50.890;5.982;2022-09-01T06:15:35;10.48;;;5.38;;
36233;SDS011;43467;50.890;5.982;2022-09-01T06:18:05;10.90;;;4.18;;
36233;SDS011;43467;50.890;5.982;2022-09-01T06:20:33;7.60;;;4.40;;
36233;SDS011;43467;50.890;5.982;2022-09-01T06:23:02;4.55;;;3.83;;
36233;SDS011;43467;50.890;5.982;2022-09-01T06:25:27;9.43;;;4.70;;
36233;SDS011;43467;50.890;5.982;2022-09-01T06:27:54;8.50;;;4.15;;
36233;SDS011;43467;50.890;5.982;2022-09-01T06:30:20;6.05;;;3.92;;
36233;SDS011;43467;50.890;5.982;2022-09-01T06:32:50;6.75;;;4.35;;
36233;SDS011;43467;50.890;5.982;2022-09-01T06:35:17;8.18;;;4.53;;
36233;SDS011;43467;50.890;5.982;2022-09-01T06:37:42;5.25;;;3.63;;
36233;SDS011;43467;50.890;5.982;2022-09-01T06:40:09;10.02;;;4.30;;
36233;SDS011;43467;50.890;5.982;2022-09-01T06:42:42;9.20;;;3.50;;
36233;SDS011;43467;50.890;5.982;2022-09-01T06:45:14;5.10;;;3.55;;
36233;SDS011;43467;50.890;5.982;2022-09-01T06:47:42;7.05;;;3.42;;
36233;SDS011;43467;50.890;5.982;2022-09-01T06:50:09;7.93;;;4.00;;
36233;SDS011;43467;50.890;5.982;2022-09-01T06:52:39;8.73;;;3.75;;
36233;SDS011;43467;50.890;5.982;2022-09-01T06:55:11;7.78;;;3.28;;
36233;SDS011;43467;50.890;5.982;2022-09-01T06:57:39;5.70;;;3.35;;
36233;SDS011;43467;50.890;5.982;2022-09-01T07:00:10;7.18;;;3.38;;
36233;SDS011;43467;50.890;5.982;2022-09-01T07:02:45;9.63;;;2.90;;
36233;SDS011;43467;50.890;5.982;2022-09-01T07:05:12;6.82;;;3.10;;
36233;SDS011;43467;50.890;5.982;2022-09-01T07:07:47;5.78;;;3.20;;
36233;SDS011;43467;50.890;5.982;2022-09-01T07:10:19;4.80;;;2.50;;
36233;SDS011;43467;50.890;5.982;2022-09-01T07:12:48;10.52;;;3.53;;
36233;SDS011;43467;50.890;5.982;2022-09-01T07:15:15;5.43;;;2.92;;
36233;SDS011;43467;50.890;5.982;2022-09-01T07:17:42;6.45;;;2.80;;
36233;SDS011;43467;50.890;5.982;2022-09-01T07:20:13;3.00;;;2.63;;
36233;SDS011;43467;50.890;5.982;2022-09-01T07:22:39;3.40;;;2.55;;
36233;SDS011;43467;50.890;5.982;2022-09-01T07:25:05;5.68;;;2.97;;
36233;SDS011;43467;50.890;5.982;2022-09-01T07:27:32;3.30;;;2.58;;
36233;SDS011;43467;50.890;5.982;2022-09-01T07:29:57;8.15;;;2.80;;
36233;SDS011;43467;50.890;5.982;2022-09-01T07:32:23;8.00;;;2.95;;
36233;SDS011;43467;50.890;5.982;2022-09-01T07:34:48;7.10;;;2.88;;
36233;SDS011;43467;50.890;5.982;2022-09-01T07:37:14;5.30;;;3.00;;
36233;SDS011;43467;50.890;5.982;2022-09-01T07:39:41;3.78;;;2.50;;
36233;SDS011;43467;50.890;5.982;2022-09-01T07:42:09;4.80;;;2.72;;
36233;SDS011;43467;50.890;5.982;2022-09-01T07:44:36;8.20;;;2.88;;
36233;SDS011;43467;50.890;5.982;2022-09-01T07:47:02;3.85;;;2.42;;
36233;SDS011;43467;50.890;5.982;2022-09-01T07:49:30;5.30;;;2.58;;
36233;SDS011;43467;50.890;5.982;2022-09-01T07:51:55;6.47;;;2.90;;
36233;SDS011;43467;50.890;5.982;2022-09-01T07:54:21;5.05;;;2.47;;
36233;SDS011;43467;50.890;5.982;2022-09-01T07:56:47;5.05;;;2.85;;
36233;SDS011;43467;50.890;5.982;2022-09-01T07:59:14;8.25;;;3.47;;
36233;SDS011;43467;50.890;5.982;2022-09-01T08:01:39;5.38;;;2.75;;
36233;SDS011;43467;50.890;5.982;2022-09-01T08:04:06;6.13;;;3.03;;
36233;SDS011;43467;50.890;5.982;2022-09-01T08:06:32;7.57;;;2.50;;
36233;SDS011;43467;50.890;5.982;2022-09-01T08:08:58;5.38;;;2.80;;
36233;SDS011;43467;50.890;5.982;2022-09-01T08:11:28;7.75;;;3.08;;
36233;SDS011;43467;50.890;5.982;2022-09-01T08:13:55;9.88;;;2.70;;
36233;SDS011;43467;50.890;5.982;2022-09-01T08:16:23;5.30;;;2.70;;
36233;SDS011;43467;50.890;5.982;2022-09-01T08:18:49;8.02;;;2.83;;
36233;SDS011;43467;50.890;5.982;2022-09-01T08:21:15;6.93;;;2.60;;
36233;SDS011;43467;50.890;5.982;2022-09-01T08:23:41;5.72;;;2.75;;
36233;SDS011;43467;50.890;5.982;2022-09-01T08:26:08;6.93;;;2.78;;
36233;SDS011;43467;50.890;5.982;2022-09-01T08:28:39;3.85;;;2.55;;
36233;SDS011;43467;50.890;5.982;2022-09-01T08:31:14;6.07;;;2.67;;
36233;SDS011;43467;50.890;5.982;2022-09-01T08:33:41;4.38;;;2.70;;
36233;SDS011;43467;50.890;5.982;2022-09-01T08:36:08;4.03;;;2.40;;
36233;SDS011;43467;50.890;5.982;2022-09-01T08:38:36;6.82;;;3.15;;
36233;SDS011;43467;50.890;5.982;2022-09-01T08:41:01;9.23;;;3.10;;
36233;SDS011;43467;50.890;5.982;2022-09-01T08:46:12;5.43;;;3.05;;
36233;SDS011;43467;50.890;5.982;2022-09-01T08:48:57;4.90;;;2.85;;
36233;SDS011;43467;50.890;5.982;2022-09-01T08:57:17;5.65;;;2.70;;
36233;SDS011;43467;50.890;5.982;2022-09-01T09:00:03;10.95;;;2.67;;
36233;SDS011;43467;50.890;5.982;2022-09-01T09:13:26;4.78;;;2.40;;
36233;SDS011;43467;50.890;5.982;2022-09-01T09:16:02;4.40;;;2.45;;
36233;SDS011;43467;50.890;5.982;2022-09-01T09:21:11;4.38;;;2.03;;
36233;SDS011;43467;50.890;5.982;2022-09-01T09:23:43;6.10;;;2.30;;
36233;SDS011;43467;50.890;5.982;2022-09-01T09:26:12;3.67;;;2.22;;
36233;SDS011;43467;50.890;5.982;2022-09-01T09:28:37;4.50;;;2.10;;
36233;SDS011;43467;50.890;5.982;2022-09-01T09:36:53;5.25;;;2.50;;
36233;SDS011;43467;50.890;5.982;2022-09-01T09:39:19;4.90;;;2.58;;
36233;SDS011;43467;50.890;5.982;2022-09-01T09:42:00;4.97;;;2.00;;
36233;SDS011;43467;50.890;5.982;2022-09-01T09:44:32;4.68;;;1.90;;
36233;SDS011;43467;50.890;5.982;2022-09-01T09:46:58;1.92;;;1.70;;
36233;SDS011;43467;50.890;5.982;2022-09-01T09:49:24;3.17;;;1.77;;
36233;SDS011;43467;50.890;5.982;2022-09-01T09:54:31;2.88;;;1.80;;
36233;SDS011;43467;50.890;5.982;2022-09-01T09:57:09;3.42;;;1.70;;
36233;SDS011;43467;50.890;5.982;2022-09-01T09:59:48;5.30;;;1.90;;
36233;SDS011;43467;50.890;5.982;2022-09-01T10:02:39;3.72;;;1.95;;
36233;SDS011;43467;50.890;5.982;2022-09-01T10:05:22;4.00;;;2.40;;
36233;SDS011;43467;50.890;5.982;2022-09-01T10:07:50;3.70;;;1.50;;
36233;SDS011;43467;50.890;5.982;2022-09-01T10:12:53;3.53;;;1.75;;
36233;SDS011;43467;50.890;5.982;2022-09-01T10:15:21;7.85;;;2.33;;
36233;SDS011;43467;50.890;5.982;2022-09-01T10:17:50;4.68;;;1.67;;
36233;SDS011;43467;50.890;5.982;2022-09-01T10:20:22;3.80;;;1.90;;
36233;SDS011;43467;50.890;5.982;2022-09-01T10:22:49;2.83;;;1.60;;
36233;SDS011;43467;50.890;5.982;2022-09-01T10:25:17;4.65;;;1.80;;
36233;SDS011;43467;50.890;5.982;2022-09-01T10:27:46;2.97;;;1.80;;
36233;SDS011;43467;50.890;5.982;2022-09-01T10:30:16;7.65;;;1.70;;
36233;SDS011;43467;50.890;5.982;2022-09-01T10:35:11;2.70;;;1.80;;
36233;SDS011;43467;50.890;5.982;2022-09-01T10:37:42;4.88;;;1.90;;
36233;SDS011;43467;50.890;5.982;2022-09-01T10:42:37;7.53;;;1.85;;
36233;SDS011;43467;50.890;5.982;2022-09-01T10:45:06;4.30;;;1.55;;
36233;SDS011;43467;50.890;5.982;2022-09-01T10:47:41;6.68;;;2.03;;
36233;SDS011;43467;50.890;5.982;2022-09-01T10:50:27;3.97;;;1.63;;
36233;SDS011;43467;50.890;5.982;2022-09-01T10:53:05;3.92;;;1.48;;
36233;SDS011;43467;50.890;5.982;2022-09-01T10:55:42;2.20;;;1.27;;
36233;SDS011;43467;50.890;5.982;2022-09-01T10:58:20;3.40;;;1.25;;
36233;SDS011;43467;50.890;5.982;2022-09-01T11:00:55;2.80;;;1.25;;
36233;SDS011;43467;50.890;5.982;2022-09-01T11:03:35;4.00;;;1.75;;
36233;SDS011;43467;50.890;5.982;2022-09-01T11:06:04;4.50;;;1.30;;
36233;SDS011;43467;50.890;5.982;2022-09-01T11:11:13;2.67;;;1.40;;
36233;SDS011;43467;50.890;5.982;2022-09-01T11:13:53;4.72;;;1.58;;
36233;SDS011;43467;50.890;5.982;2022-09-01T11:18:55;4.60;;;1.50;;
36233;SDS011;43467;50.890;5.982;2022-09-01T11:21:40;2.95;;;1.58;;
36233;SDS011;43467;50.890;5.982;2022-09-01T11:27:03;3.25;;;1.60;;
36233;SDS011;43467;50.890;5.982;2022-09-01T11:32:33;5.05;;;2.20;;
36233;SDS011;43467;50.890;5.982;2022-09-01T11:35:04;2.40;;;1.50;;
36233;SDS011;43467;50.890;5.982;2022-09-01T11:37:38;4.30;;;1.50;;
36233;SDS011;43467;50.890;5.982;2022-09-01T11:40:04;5.13;;;1.40;;
36233;SDS011;43467;50.890;5.982;2022-09-01T11:42:41;3.08;;;1.33;;
36233;SDS011;43467;50.890;5.982;2022-09-01T11:47:49;3.20;;;1.70;;
36233;SDS011;43467;50.890;5.982;2022-09-01T11:50:26;3.58;;;1.65;;
36233;SDS011;43467;50.890;5.982;2022-09-01T11:52:58;3.83;;;1.70;;
36233;SDS011;43467;50.890;5.982;2022-09-01T11:55:28;3.83;;;1.33;;
36233;SDS011;43467;50.890;5.982;2022-09-01T11:57:55;4.30;;;1.42;;
36233;SDS011;43467;50.890;5.982;2022-09-01T12:00:31;4.20;;;1.48;;
36233;SDS011;43467;50.890;5.982;2022-09-01T12:03:02;4.10;;;1.48;;
36233;SDS011;43467;50.890;5.982;2022-09-01T12:05:31;3.70;;;1.35;;
36233;SDS011;43467;50.890;5.982;2022-09-01T12:08:01;4.07;;;1.58;;
36233;SDS011;43467;50.890;5.982;2022-09-01T12:10:30;3.55;;;1.35;;
36233;SDS011;43467;50.890;5.982;2022-09-01T12:13:08;3.60;;;1.48;;
36233;SDS011;43467;50.890;5.982;2022-09-01T12:15:36;4.95;;;1.60;;
36233;SDS011;43467;50.890;5.982;2022-09-01T12:20:42;3.50;;;1.65;;
36233;SDS011;43467;50.890;5.982;2022-09-01T12:25:58;1.70;;;1.60;;
36233;SDS011;43467;50.890;5.982;2022-09-01T12:28:35;3.72;;;1.48;;
36233;SDS011;43467;50.890;5.982;2022-09-01T12:31:06;3.10;;;1.40;;
36233;SDS011;43467;50.890;5.982;2022-09-01T12:33:37;4.00;;;1.67;;
36233;SDS011;43467;50.890;5.982;2022-09-01T12:38:51;4.57;;;1.67;;
36233;SDS011;43467;50.890;5.982;2022-09-01T12:41:25;2.83;;;1.70;;
36233;SDS011;43467;50.890;5.982;2022-09-01T12:46:54;4.95;;;1.70;;
36233;SDS011;43467;50.890;5.982;2022-09-01T12:49:23;3.50;;;1.67;;
36233;SDS011;43467;50.890;5.982;2022-09-01T12:54:43;4.25;;;1.77;;
36233;SDS011;43467;50.890;5.982;2022-09-01T12:57:35;2.28;;;1.75;;
36233;SDS011;43467;50.890;5.982;2022-09-01T13:08:06;5.13;;;1.85;;
36233;SDS011;43467;50.890;5.982;2022-09-01T13:10:34;2.28;;;1.85;;
36233;SDS011;43467;50.890;5.982;2022-09-01T13:15:35;2.05;;;1.75;;
36233;SDS011;43467;50.890;5.982;2022-09-01T13:18:02;2.20;;;1.90;;
36233;SDS011;43467;50.890;5.982;2022-09-01T13:20:28;5.38;;;2.20;;
36233;SDS011;43467;50.890;5.982;2022-09-01T13:22:53;3.67;;;2.00;;
36233;SDS011;43467;50.890;5.982;2022-09-01T13:25:19;3.80;;;2.47;;
36233;SDS011;43467;50.890;5.982;2022-09-01T13:27:46;3.95;;;2.67;;
36233;SDS011;43467;50.890;5.982;2022-09-01T13:30:13;3.78;;;2.00;;
36233;SDS011;43467;50.890;5.982;2022-09-01T13:32:41;4.68;;;2.42;;
36233;SDS011;43467;50.890;5.982;2022-09-01T13:35:08;3.85;;;1.75;;
36233;SDS011;43467;50.890;5.982;2022-09-01T13:37:35;4.32;;;2.20;;
36233;SDS011;43467;50.890;5.982;2022-09-01T13:40:01;3.30;;;1.63;;
36233;SDS011;43467;50.890;5.982;2022-09-01T13:42:28;5.68;;;1.90;;
36233;SDS011;43467;50.890;5.982;2022-09-01T13:44:53;4.95;;;1.85;;
36233;SDS011;43467;50.890;5.982;2022-09-01T13:47:19;2.70;;;2.15;;
36233;SDS011;43467;50.890;5.982;2022-09-01T13:49:44;2.72;;;1.88;;
36233;SDS011;43467;50.890;5.982;2022-09-01T13:52:10;2.60;;;2.17;;
36233;SDS011;43467;50.890;5.982;2022-09-01T13:54:36;5.15;;;2.00;;
36233;SDS011;43467;50.890;5.982;2022-09-01T13:57:02;4.18;;;1.95;;
36233;SDS011;43467;50.890;5.982;2022-09-01T13:59:27;3.92;;;2.30;;
36233;SDS011;43467;50.890;5.982;2022-09-01T14:01:54;3.03;;;2.03;;
36233;SDS011;43467;50.890;5.982;2022-09-01T14:04:20;2.78;;;1.95;;
36233;SDS011;43467;50.890;5.982;2022-09-01T14:06:46;5.47;;;2.30;;
36233;SDS011;43467;50.890;5.982;2022-09-01T14:09:13;4.10;;;1.90;;
36233;SDS011;43467;50.890;5.982;2022-09-01T14:11:39;5.88;;;1.75;;
36233;SDS011;43467;50.890;5.982;2022-09-01T14:14:05;3.85;;;2.00;;
36233;SDS011;43467;50.890;5.982;2022-09-01T14:16:31;3.25;;;1.80;;
36233;SDS011;43467;50.890;5.982;2022-09-01T14:18:56;2.33;;;1.83;;
36233;SDS011;43467;50.890;5.982;2022-09-01T14:21:23;2.60;;;1.88;;
36233;SDS011;43467;50.890;5.982;2022-09-01T14:23:49;3.97;;;1.83;;
36233;SDS011;43467;50.890;5.982;2022-09-01T14:26:15;3.83;;;1.80;;
36233;SDS011;43467;50.890;5.982;2022-09-01T14:28:41;4.78;;;2.13;;
36233;SDS011;43467;50.890;5.982;2022-09-01T14:31:12;2.67;;;1.90;;
36233;SDS011;43467;50.890;5.982;2022-09-01T14:33:41;2.78;;;1.80;;
36233;SDS011;43467;50.890;5.982;2022-09-01T14:36:07;3.17;;;1.70;;
36233;SDS011;43467;50.890;5.982;2022-09-01T14:38:33;2.95;;;1.65;;
36233;SDS011;43467;50.890;5.982;2022-09-01T14:40:59;2.72;;;1.80;;
36233;SDS011;43467;50.890;5.982;2022-09-01T14:43:25;2.25;;;1.70;;
36233;SDS011;43467;50.890;5.982;2022-09-01T14:46:00;2.75;;;1.85;;
36233;SDS011;43467;50.890;5.982;2022-09-01T14:48:31;2.90;;;2.10;;
36233;SDS011;43467;50.890;5.982;2022-09-01T14:50:57;4.13;;;1.65;;
36233;SDS011;43467;50.890;5.982;2022-09-01T14:53:24;3.75;;;1.55;;
36233;SDS011;43467;50.890;5.982;2022-09-01T14:55:51;4.78;;;1.92;;
36233;SDS011;43467;50.890;5.982;2022-09-01T14:58:16;7.63;;;1.85;;
36233;SDS011;43467;50.890;5.982;2022-09-01T15:00:41;3.63;;;1.93;;
36233;SDS011;43467;50.890;5.982;2022-09-01T15:03:09;2.45;;;1.55;;
36233;SDS011;43467;50.890;5.982;2022-09-01T15:05:34;4.65;;;2.42;;
36233;SDS011;43467;50.890;5.982;2022-09-01T15:08:01;4.82;;;2.03;;
36233;SDS011;43467;50.890;5.982;2022-09-01T15:10:27;2.40;;;1.63;;
36233;SDS011;43467;50.890;5.982;2022-09-01T15:12:55;5.15;;;1.60;;
36233;SDS011;43467;50.890;5.982;2022-09-01T15:15:23;2.58;;;1.50;;
36233;SDS011;43467;50.890;5.982;2022-09-01T15:17:49;4.88;;;2.05;;
36233;SDS011;43467;50.890;5.982;2022-09-01T15:20:14;2.13;;;1.40;;
36233;SDS011;43467;50.890;5.982;2022-09-01T15:22:59;8.40;;;2.50;;
36233;SDS011;43467;50.890;5.982;2022-09-01T15:25:25;3.65;;;1.65;;
36233;SDS011;43467;50.890;5.982;2022-09-01T15:27:50;2.25;;;2.03;;
36233;SDS011;43467;50.890;5.982;2022-09-01T15:30:16;3.00;;;1.80;;
36233;SDS011;43467;50.890;5.982;2022-09-01T15:32:43;2.83;;;1.80;;
36233;SDS011;43467;50.890;5.982;2022-09-01T15:35:10;2.88;;;1.88;;
36233;SDS011;43467;50.890;5.982;2022-09-01T15:37:36;3.53;;;1.75;;
36233;SDS011;43467;50.890;5.982;2022-09-01T15:40:04;3.45;;;1.70;;
36233;SDS011;43467;50.890;5.982;2022-09-01T15:42:31;3.53;;;1.90;;
36233;SDS011;43467;50.890;5.982;2022-09-01T15:45:04;3.95;;;1.48;;
36233;SDS011;43467;50.890;5.982;2022-09-01T15:47:32;3.10;;;1.83;;
36233;SDS011;43467;50.890;5.982;2022-09-01T15:49:58;6.35;;;2.00;;
36233;SDS011;43467;50.890;5.982;2022-09-01T15:52:24;4.57;;;2.05;;
36233;SDS011;43467;50.890;5.982;2022-09-01T15:54:51;2.60;;;1.50;;
36233;SDS011;43467;50.890;5.982;2022-09-01T15:57:17;3.90;;;2.00;;
36233;SDS011;43467;50.890;5.982;2022-09-01T15:59:43;6.93;;;2.78;;
36233;SDS011;43467;50.890;5.982;2022-09-01T16:02:09;2.80;;;1.65;;
36233;SDS011;43467;50.890;5.982;2022-09-01T16:04:36;3.83;;;1.45;;
36233;SDS011;43467;50.890;5.982;2022-09-01T16:07:01;2.58;;;1.50;;
36233;SDS011;43467;50.890;5.982;2022-09-01T16:09:27;3.30;;;1.80;;
36233;SDS011;43467;50.890;5.982;2022-09-01T16:11:53;2.17;;;1.98;;
36233;SDS011;43467;50.890;5.982;2022-09-01T16:14:18;3.33;;;2.42;;
36233;SDS011;43467;50.890;5.982;2022-09-01T16:22:36;4.10;;;2.10;;
36233;SDS011;43467;50.890;5.982;2022-09-01T16:25:14;2.97;;;2.17;;